sensor_id;sensor_type;location;lat;lon;timestamp;P1;durP1;ratioP1;P2;durP2;ratioP2
49450;SDS011;35336;48.400;10.886;2023-03-01T00:00:10;17.00;;;13.50;;
49450;SDS011;35336;48.400;10.886;2023-03-01T00:00:26;19.08;;;13.85;;
49450;SDS011;35336;48.400;10.886;2023-03-01T00:00:42;19.47;;;13.33;;
49450;SDS011;35336;48.400;10.886;2023-03-01T00:01:01;18.40;;;13.60;;
49450;SDS011;35336;48.400;10.886;2023-03-01T00:01:19;20.92;;;13.98;;
49450;SDS011;35336;48.400;10.886;2023-03-01T00:01:36;19.95;;;13.68;;
49450;SDS011;35336;48.400;10.886;2023-03-01T00:01:52;19.63;;;13.33;;
49450;SDS011;35336;48.400;10.886;2023-03-01T00:02:07;20.55;;;13.32;;
49450;SDS011;35336;48.400;10.886;2023-03-01T00:02:22;19.07;;;13.60;;
49450;SDS011;35336;48.400;10.886;2023-03-01T00:02:38;18.20;;;13.57;;
49450;SDS011;35336;48.400;10.886;2023-03-01T00:02:53;18.40;;;13.55;;
49450;SDS011;35336;48.400;10.886;2023-03-01T00:03:08;19.63;;;13.40;;
49450;SDS011;35336;48.400;10.886;2023-03-01T00:03:24;20.37;;;13.40;;
49450;SDS011;35336;48.400;10.886;2023-03-01T00:03:39;19.58;;;13.70;;
49450;SDS011;35336;48.400;10.886;2023-03-01T00:03:56;18.92;;;13.63;;
49450;SDS011;35336;48.400;10.886;2023-03-01T00:04:13;20.33;;;13.82;;
49450;SDS011;35336;48.400;10.886;2023-03-01T00:04:28;20.63;;;14.05;;
49450;SDS011;35336;48.400;10.886;2023-03-01T00:04:43;18.93;;;13.50;;
49450;SDS011;35336;48.400;10.886;2023-03-01T00:04:59;18.90;;;13.83;;
49450;SDS011;35336;48.400;10.886;2023-03-01T00:05:14;19.75;;;14.13;;
49450;SDS011;35336;48.400;10.886;2023-03-01T00:05:29;20.40;;;14.03;;
49450;SDS011;35336;48.400;10.886;2023-03-01T00:05:45;19.63;;;13.63;;
49450;SDS011;35336;48.400;10.886;2023-03-01T00:06:02;18.45;;;13.43;;
49450;SDS011;35336;48.400;10.886;2023-03-01T00:06:18;18.85;;;13.43;;
49450;SDS011;35336;48.400;10.886;2023-03-01T00:06:34;18.65;;;13.15;;
49450;SDS011;35336;48.400;10.886;2023-03-01T00:06:50;17.57;;;13.13;;
49450;SDS011;35336;48.400;10.886;2023-03-01T00:07:05;17.67;;;13.65;;
49450;SDS011;35336;48.400;10.886;2023-03-01T00:07:21;17.87;;;14.03;;
49450;SDS011;35336;48.400;10.886;2023-03-01T00:07:36;18.77;;;14.35;;
49450;SDS011;35336;48.400;10.886;2023-03-01T00:07:54;19.70;;;14.50;;
49450;SDS011;35336;48.400;10.886;2023-03-01T00:08:09;19.23;;;13.35;;
49450;SDS011;35336;48.400;10.886;2023-03-01T00:08:25;19.63;;;13.43;;
49450;SDS011;35336;48.400;10.886;2023-03-01T00:08:41;19.52;;;13.73;;
49450;SDS011;35336;48.400;10.886;2023-03-01T00:08:57;18.17;;;13.10;;
49450;SDS011;35336;48.400;10.886;2023-03-01T00:09:15;19.33;;;13.45;;
49450;SDS011;35336;48.400;10.886;2023-03-01T00:09:31;22.15;;;14.20;;
49450;SDS011;35336;48.400;10.886;2023-03-01T00:09:46;22.05;;;14.25;;
49450;SDS011;35336;48.400;10.886;2023-03-01T00:10:01;20.70;;;14.60;;
49450;SDS011;35336;48.400;10.886;2023-03-01T00:10:17;20.87;;;15.10;;
49450;SDS011;35336;48.400;10.886;2023-03-01T00:10:32;19.08;;;14.10;;
49450;SDS011;35336;48.400;10.886;2023-03-01T00:10:47;17.80;;;13.27;;
49450;SDS011;35336;48.400;10.886;2023-03-01T00:11:17;18.08;;;13.57;;
49450;SDS011;35336;48.400;10.886;2023-03-01T00:11:34;19.23;;;14.05;;
49450;SDS011;35336;48.400;10.886;2023-03-01T00:11:50;19.13;;;13.73;;
49450;SDS011;35336;48.400;10.886;2023-03-01T00:12:05;17.80;;;13.30;;
49450;SDS011;35336;48.400;10.886;2023-03-01T00:12:21;19.25;;;13.63;;
49450;SDS011;35336;48.400;10.886;2023-03-01T00:12:36;20.27;;;13.80;;
49450;SDS011;35336;48.400;10.886;2023-03-01T00:12:52;23.67;;;13.85;;
49450;SDS011;35336;48.400;10.886;2023-03-01T00:13:07;21.70;;;13.73;;
49450;SDS011;35336;48.400;10.886;2023-03-01T00:13:22;18.00;;;13.63;;
49450;SDS011;35336;48.400;10.886;2023-03-01T00:13:38;19.85;;;13.88;;
49450;SDS011;35336;48.400;10.886;2023-03-01T00:13:55;19.30;;;14.13;;
49450;SDS011;35336;48.400;10.886;2023-03-01T00:14:13;18.13;;;14.18;;
49450;SDS011;35336;48.400;10.886;2023-03-01T00:14:28;17.70;;;13.80;;
49450;SDS011;35336;48.400;10.886;2023-03-01T00:14:44;18.80;;;13.60;;
49450;SDS011;35336;48.400;10.886;2023-03-01T00:14:59;19.37;;;14.00;;
49450;SDS011;35336;48.400;10.886;2023-03-01T00:15:14;18.30;;;14.00;;
49450;SDS011;35336;48.400;10.886;2023-03-01T00:15:29;20.50;;;13.83;;
49450;SDS011;35336;48.400;10.886;2023-03-01T00:15:45;21.00;;;13.55;;
49450;SDS011;35336;48.400;10.886;2023-03-01T00:16:07;17.83;;;13.27;;
49450;SDS011;35336;48.400;10.886;2023-03-01T00:16:25;17.92;;;13.35;;
49450;SDS011;35336;48.400;10.886;2023-03-01T00:16:43;18.33;;;13.48;;
49450;SDS011;35336;48.400;10.886;2023-03-01T00:16:59;18.33;;;13.60;;
49450;SDS011;35336;48.400;10.886;2023-03-01T00:17:14;18.35;;;13.82;;
49450;SDS011;35336;48.400;10.886;2023-03-01T00:17:30;18.37;;;14.10;;
49450;SDS011;35336;48.400;10.886;2023-03-01T00:17:45;18.73;;;13.50;;
49450;SDS011;35336;48.400;10.886;2023-03-01T00:18:00;19.70;;;13.80;;
49450;SDS011;35336;48.400;10.886;2023-03-01T00:18:16;19.37;;;14.17;;
49450;SDS011;35336;48.400;10.886;2023-03-01T00:18:31;18.70;;;14.33;;
49450;SDS011;35336;48.400;10.886;2023-03-01T00:18:47;19.02;;;14.35;;
49450;SDS011;35336;48.400;10.886;2023-03-01T00:19:03;18.55;;;13.63;;
49450;SDS011;35336;48.400;10.886;2023-03-01T00:19:18;19.27;;;13.70;;
49450;SDS011;35336;48.400;10.886;2023-03-01T00:19:35;21.33;;;13.82;;
49450;SDS011;35336;48.400;10.886;2023-03-01T00:19:50;20.67;;;13.57;;
49450;SDS011;35336;48.400;10.886;2023-03-01T00:20:06;19.92;;;13.95;;
49450;SDS011;35336;48.400;10.886;2023-03-01T00:20:22;19.30;;;14.30;;
49450;SDS011;35336;48.400;10.886;2023-03-01T00:20:38;17.75;;;14.10;;
49450;SDS011;35336;48.400;10.886;2023-03-01T00:20:53;19.23;;;14.17;;
49450;SDS011;35336;48.400;10.886;2023-03-01T00:21:10;20.00;;;14.10;;
49450;SDS011;35336;48.400;10.886;2023-03-01T00:21:26;20.17;;;14.45;;
49450;SDS011;35336;48.400;10.886;2023-03-01T00:21:42;19.00;;;14.30;;
49450;SDS011;35336;48.400;10.886;2023-03-01T00:21:58;18.70;;;13.95;;
49450;SDS011;35336;48.400;10.886;2023-03-01T00:22:13;19.57;;;13.73;;
49450;SDS011;35336;48.400;10.886;2023-03-01T00:22:28;20.23;;;14.20;;
49450;SDS011;35336;48.400;10.886;2023-03-01T00:22:44;19.60;;;14.00;;
49450;SDS011;35336;48.400;10.886;2023-03-01T00:22:59;18.67;;;13.67;;
49450;SDS011;35336;48.400;10.886;2023-03-01T00:23:14;18.25;;;14.32;;
49450;SDS011;35336;48.400;10.886;2023-03-01T00:23:30;18.73;;;14.60;;
49450;SDS011;35336;48.400;10.886;2023-03-01T00:23:45;19.92;;;14.32;;
49450;SDS011;35336;48.400;10.886;2023-03-01T00:24:01;19.83;;;13.80;;
49450;SDS011;35336;48.400;10.886;2023-03-01T00:24:16;20.95;;;14.25;;
49450;SDS011;35336;48.400;10.886;2023-03-01T00:24:32;19.37;;;13.97;;
49450;SDS011;35336;48.400;10.886;2023-03-01T00:24:47;17.00;;;13.10;;
49450;SDS011;35336;48.400;10.886;2023-03-01T00:25:03;18.65;;;13.98;;
49450;SDS011;35336;48.400;10.886;2023-03-01T00:25:18;19.23;;;14.05;;
49450;SDS011;35336;48.400;10.886;2023-03-01T00:25:37;18.87;;;13.63;;
49450;SDS011;35336;48.400;10.886;2023-03-01T00:25:56;18.92;;;13.52;;
49450;SDS011;35336;48.400;10.886;2023-03-01T00:26:12;18.92;;;13.63;;
49450;SDS011;35336;48.400;10.886;2023-03-01T00:26:28;19.73;;;13.73;;
49450;SDS011;35336;48.400;10.886;2023-03-01T00:26:43;20.23;;;13.83;;
49450;SDS011;35336;48.400;10.886;2023-03-01T00:26:59;19.47;;;13.63;;
49450;SDS011;35336;48.400;10.886;2023-03-01T00:27:14;18.17;;;13.32;;
49450;SDS011;35336;48.400;10.886;2023-03-01T00:27:29;18.27;;;13.17;;
49450;SDS011;35336;48.400;10.886;2023-03-01T00:27:46;18.83;;;13.30;;
49450;SDS011;35336;48.400;10.886;2023-03-01T00:28:02;18.13;;;13.82;;
49450;SDS011;35336;48.400;10.886;2023-03-01T00:28:17;17.42;;;13.65;;
49450;SDS011;35336;48.400;10.886;2023-03-01T00:28:33;18.23;;;13.77;;
49450;SDS011;35336;48.400;10.886;2023-03-01T00:28:48;20.80;;;14.40;;
49450;SDS011;35336;48.400;10.886;2023-03-01T00:29:04;20.30;;;13.83;;
49450;SDS011;35336;48.400;10.886;2023-03-01T00:29:19;18.63;;;13.83;;
49450;SDS011;35336;48.400;10.886;2023-03-01T00:29:35;17.73;;;14.20;;
49450;SDS011;35336;48.400;10.886;2023-03-01T00:29:50;18.95;;;14.55;;
49450;SDS011;35336;48.400;10.886;2023-03-01T00:30:07;19.30;;;14.18;;
49450;SDS011;35336;48.400;10.886;2023-03-01T00:30:23;17.77;;;13.13;;
49450;SDS011;35336;48.400;10.886;2023-03-01T00:30:38;18.92;;;13.23;;
49450;SDS011;35336;48.400;10.886;2023-03-01T00:30:54;19.80;;;13.80;;
49450;SDS011;35336;48.400;10.886;2023-03-01T00:31:11;18.70;;;13.85;;
49450;SDS011;35336;48.400;10.886;2023-03-01T00:31:29;20.70;;;13.98;;
49450;SDS011;35336;48.400;10.886;2023-03-01T00:31:45;23.05;;;14.27;;
49450;SDS011;35336;48.400;10.886;2023-03-01T00:32:00;20.77;;;14.53;;
49450;SDS011;35336;48.400;10.886;2023-03-01T00:32:16;19.38;;;14.23;;
49450;SDS011;35336;48.400;10.886;2023-03-01T00:32:31;19.23;;;14.10;;
49450;SDS011;35336;48.400;10.886;2023-03-01T00:32:46;19.57;;;13.90;;
49450;SDS011;35336;48.400;10.886;2023-03-01T00:33:02;21.10;;;14.45;;
49450;SDS011;35336;48.400;10.886;2023-03-01T00:33:17;20.23;;;14.77;;
49450;SDS011;35336;48.400;10.886;2023-03-01T00:33:33;19.13;;;13.57;;
49450;SDS011;35336;48.400;10.886;2023-03-01T00:33:51;20.83;;;13.05;;
49450;SDS011;35336;48.400;10.886;2023-03-01T00:34:08;21.30;;;14.02;;
49450;SDS011;35336;48.400;10.886;2023-03-01T00:34:24;23.33;;;14.48;;
49450;SDS011;35336;48.400;10.886;2023-03-01T00:34:39;21.17;;;14.23;;
49450;SDS011;35336;48.400;10.886;2023-03-01T00:34:55;21.15;;;14.30;;
49450;SDS011;35336;48.400;10.886;2023-03-01T00:35:10;21.63;;;14.33;;
49450;SDS011;35336;48.400;10.886;2023-03-01T00:35:25;20.37;;;14.20;;
49450;SDS011;35336;48.400;10.886;2023-03-01T00:35:40;19.50;;;13.80;;
49450;SDS011;35336;48.400;10.886;2023-03-01T00:35:57;18.60;;;13.80;;
49450;SDS011;35336;48.400;10.886;2023-03-01T00:36:14;20.05;;;14.70;;
49450;SDS011;35336;48.400;10.886;2023-03-01T00:36:32;18.75;;;14.10;;
49450;SDS011;35336;48.400;10.886;2023-03-01T00:36:49;18.40;;;13.90;;
49450;SDS011;35336;48.400;10.886;2023-03-01T00:37:04;19.33;;;14.60;;
49450;SDS011;35336;48.400;10.886;2023-03-01T00:37:23;19.20;;;14.57;;
49450;SDS011;35336;48.400;10.886;2023-03-01T00:37:38;17.55;;;13.68;;
49450;SDS011;35336;48.400;10.886;2023-03-01T00:37:54;18.88;;;13.85;;
49450;SDS011;35336;48.400;10.886;2023-03-01T00:38:11;20.38;;;14.43;;
49450;SDS011;35336;48.400;10.886;2023-03-01T00:38:27;20.88;;;14.23;;
49450;SDS011;35336;48.400;10.886;2023-03-01T00:38:43;20.40;;;14.50;;
49450;SDS011;35336;48.400;10.886;2023-03-01T00:39:00;19.80;;;14.32;;
49450;SDS011;35336;48.400;10.886;2023-03-01T00:39:17;18.25;;;13.82;;
49450;SDS011;35336;48.400;10.886;2023-03-01T00:39:32;16.63;;;13.53;;
49450;SDS011;35336;48.400;10.886;2023-03-01T00:39:47;17.67;;;13.53;;
49450;SDS011;35336;48.400;10.886;2023-03-01T00:40:03;18.67;;;13.55;;
49450;SDS011;35336;48.400;10.886;2023-03-01T00:40:19;18.02;;;13.43;;
49450;SDS011;35336;48.400;10.886;2023-03-01T00:40:34;18.97;;;13.43;;
49450;SDS011;35336;48.400;10.886;2023-03-01T00:40:51;20.90;;;13.43;;
49450;SDS011;35336;48.400;10.886;2023-03-01T00:41:08;19.97;;;13.77;;
49450;SDS011;35336;48.400;10.886;2023-03-01T00:41:26;19.88;;;14.07;;
49450;SDS011;35336;48.400;10.886;2023-03-01T00:41:42;19.35;;;14.02;;
49450;SDS011;35336;48.400;10.886;2023-03-01T00:41:57;22.27;;;14.57;;
49450;SDS011;35336;48.400;10.886;2023-03-01T00:42:12;22.85;;;14.68;;
49450;SDS011;35336;48.400;10.886;2023-03-01T00:42:28;18.73;;;13.93;;
49450;SDS011;35336;48.400;10.886;2023-03-01T00:42:43;17.92;;;13.65;;
49450;SDS011;35336;48.400;10.886;2023-03-01T00:42:59;17.87;;;13.40;;
49450;SDS011;35336;48.400;10.886;2023-03-01T00:43:14;19.20;;;13.97;;
49450;SDS011;35336;48.400;10.886;2023-03-01T00:43:29;19.53;;;14.37;;
49450;SDS011;35336;48.400;10.886;2023-03-01T00:43:45;18.93;;;13.70;;
49450;SDS011;35336;48.400;10.886;2023-03-01T00:44:00;21.17;;;14.02;;
49450;SDS011;35336;48.400;10.886;2023-03-01T00:44:16;19.73;;;14.03;;
49450;SDS011;35336;48.400;10.886;2023-03-01T00:44:31;19.07;;;13.70;;
49450;SDS011;35336;48.400;10.886;2023-03-01T00:44:46;20.63;;;14.70;;
49450;SDS011;35336;48.400;10.886;2023-03-01T00:45:02;20.03;;;14.60;;
49450;SDS011;35336;48.400;10.886;2023-03-01T00:45:17;19.65;;;13.95;;
49450;SDS011;35336;48.400;10.886;2023-03-01T00:45:33;19.80;;;13.77;;
49450;SDS011;35336;48.400;10.886;2023-03-01T00:45:48;19.10;;;13.70;;
49450;SDS011;35336;48.400;10.886;2023-03-01T00:46:05;18.53;;;14.10;;
49450;SDS011;35336;48.400;10.886;2023-03-01T00:46:24;20.02;;;13.82;;
49450;SDS011;35336;48.400;10.886;2023-03-01T00:46:40;19.25;;;13.93;;
49450;SDS011;35336;48.400;10.886;2023-03-01T00:46:55;19.30;;;14.02;;
49450;SDS011;35336;48.400;10.886;2023-03-01T00:47:11;19.83;;;13.87;;
49450;SDS011;35336;48.400;10.886;2023-03-01T00:47:28;19.33;;;13.67;;
49450;SDS011;35336;48.400;10.886;2023-03-01T00:47:44;19.83;;;13.63;;
49450;SDS011;35336;48.400;10.886;2023-03-01T00:47:59;18.58;;;13.48;;
49450;SDS011;35336;48.400;10.886;2023-03-01T00:48:14;18.80;;;13.80;;
49450;SDS011;35336;48.400;10.886;2023-03-01T00:48:32;19.50;;;14.27;;
49450;SDS011;35336;48.400;10.886;2023-03-01T00:48:48;19.80;;;14.02;;
49450;SDS011;35336;48.400;10.886;2023-03-01T00:49:04;19.23;;;14.00;;
49450;SDS011;35336;48.400;10.886;2023-03-01T00:49:19;18.98;;;14.00;;
49450;SDS011;35336;48.400;10.886;2023-03-01T00:49:34;20.67;;;14.17;;
49450;SDS011;35336;48.400;10.886;2023-03-01T00:49:50;20.77;;;14.43;;
49450;SDS011;35336;48.400;10.886;2023-03-01T00:50:05;19.90;;;14.52;;
49450;SDS011;35336;48.400;10.886;2023-03-01T00:50:21;20.10;;;14.97;;
49450;SDS011;35336;48.400;10.886;2023-03-01T00:50:36;20.02;;;14.90;;
49450;SDS011;35336;48.400;10.886;2023-03-01T00:50:52;20.10;;;14.63;;
49450;SDS011;35336;48.400;10.886;2023-03-01T00:51:07;23.00;;;14.73;;
49450;SDS011;35336;48.400;10.886;2023-03-01T00:51:26;21.60;;;14.35;;
49450;SDS011;35336;48.400;10.886;2023-03-01T00:51:42;20.77;;;14.27;;
49450;SDS011;35336;48.400;10.886;2023-03-01T00:51:58;19.33;;;14.20;;
49450;SDS011;35336;48.400;10.886;2023-03-01T00:52:13;18.85;;;14.15;;
49450;SDS011;35336;48.400;10.886;2023-03-01T00:52:28;18.33;;;13.83;;
49450;SDS011;35336;48.400;10.886;2023-03-01T00:52:44;19.20;;;14.20;;
49450;SDS011;35336;48.400;10.886;2023-03-01T00:52:59;18.92;;;13.77;;
49450;SDS011;35336;48.400;10.886;2023-03-01T00:53:14;19.53;;;13.77;;
49450;SDS011;35336;48.400;10.886;2023-03-01T00:53:30;21.25;;;14.55;;
49450;SDS011;35336;48.400;10.886;2023-03-01T00:53:45;21.43;;;14.53;;
49450;SDS011;35336;48.400;10.886;2023-03-01T00:54:02;19.58;;;14.52;;
49450;SDS011;35336;48.400;10.886;2023-03-01T00:54:17;19.77;;;14.02;;
49450;SDS011;35336;48.400;10.886;2023-03-01T00:54:33;20.38;;;14.10;;
49450;SDS011;35336;48.400;10.886;2023-03-01T00:54:48;19.63;;;14.37;;
49450;SDS011;35336;48.400;10.886;2023-03-01T00:55:07;19.20;;;14.02;;
49450;SDS011;35336;48.400;10.886;2023-03-01T00:55:23;20.33;;;13.90;;
49450;SDS011;35336;48.400;10.886;2023-03-01T00:55:39;20.00;;;14.27;;
49450;SDS011;35336;48.400;10.886;2023-03-01T00:55:56;19.63;;;14.73;;
49450;SDS011;35336;48.400;10.886;2023-03-01T00:56:12;20.38;;;14.40;;
49450;SDS011;35336;48.400;10.886;2023-03-01T00:56:29;20.83;;;14.75;;
49450;SDS011;35336;48.400;10.886;2023-03-01T00:56:45;21.77;;;14.77;;
49450;SDS011;35336;48.400;10.886;2023-03-01T00:57:00;20.57;;;14.37;;
49450;SDS011;35336;48.400;10.886;2023-03-01T00:57:15;20.87;;;14.70;;
49450;SDS011;35336;48.400;10.886;2023-03-01T00:57:31;21.00;;;15.10;;
49450;SDS011;35336;48.400;10.886;2023-03-01T00:57:46;20.15;;;15.20;;
49450;SDS011;35336;48.400;10.886;2023-03-01T00:58:02;20.30;;;14.97;;
49450;SDS011;35336;48.400;10.886;2023-03-01T00:58:17;21.63;;;15.07;;
49450;SDS011;35336;48.400;10.886;2023-03-01T00:58:32;22.03;;;15.27;;
49450;SDS011;35336;48.400;10.886;2023-03-01T00:58:48;21.83;;;15.75;;
49450;SDS011;35336;48.400;10.886;2023-03-01T00:59:04;21.70;;;15.85;;
49450;SDS011;35336;48.400;10.886;2023-03-01T00:59:19;21.30;;;15.13;;
49450;SDS011;35336;48.400;10.886;2023-03-01T00:59:34;22.57;;;15.10;;
49450;SDS011;35336;48.400;10.886;2023-03-01T00:59:50;22.00;;;15.50;;
49450;SDS011;35336;48.400;10.886;2023-03-01T01:00:05;20.87;;;15.47;;
49450;SDS011;35336;48.400;10.886;2023-03-01T01:00:21;20.80;;;15.23;;
49450;SDS011;35336;48.400;10.886;2023-03-01T01:00:37;20.20;;;14.95;;
49450;SDS011;35336;48.400;10.886;2023-03-01T01:00:52;21.27;;;15.63;;
49450;SDS011;35336;48.400;10.886;2023-03-01T01:01:12;21.55;;;15.82;;
49450;SDS011;35336;48.400;10.886;2023-03-01T01:01:30;21.23;;;15.40;;
49450;SDS011;35336;48.400;10.886;2023-03-01T01:01:46;22.42;;;15.55;;
49450;SDS011;35336;48.400;10.886;2023-03-01T01:02:01;22.23;;;15.23;;
49450;SDS011;35336;48.400;10.886;2023-03-01T01:02:16;21.10;;;15.60;;
49450;SDS011;35336;48.400;10.886;2023-03-01T01:02:32;22.92;;;15.50;;
49450;SDS011;35336;48.400;10.886;2023-03-01T01:02:48;23.08;;;15.40;;
49450;SDS011;35336;48.400;10.886;2023-03-01T01:03:03;19.23;;;15.00;;
49450;SDS011;35336;48.400;10.886;2023-03-01T01:03:19;19.67;;;14.65;;
49450;SDS011;35336;48.400;10.886;2023-03-01T01:03:34;21.07;;;15.27;;
49450;SDS011;35336;48.400;10.886;2023-03-01T01:03:50;20.53;;;15.07;;
49450;SDS011;35336;48.400;10.886;2023-03-01T01:04:11;20.05;;;15.43;;
49450;SDS011;35336;48.400;10.886;2023-03-01T01:04:28;22.33;;;15.73;;
49450;SDS011;35336;48.400;10.886;2023-03-01T01:04:44;21.10;;;15.37;;
49450;SDS011;35336;48.400;10.886;2023-03-01T01:04:59;20.83;;;15.77;;
49450;SDS011;35336;48.400;10.886;2023-03-01T01:05:15;21.97;;;16.27;;
49450;SDS011;35336;48.400;10.886;2023-03-01T01:05:30;22.52;;;15.55;;
49450;SDS011;35336;48.400;10.886;2023-03-01T01:05:48;23.05;;;15.00;;
49450;SDS011;35336;48.400;10.886;2023-03-01T01:06:04;21.73;;;15.40;;
49450;SDS011;35336;48.400;10.886;2023-03-01T01:06:23;21.73;;;15.97;;
49450;SDS011;35336;48.400;10.886;2023-03-01T01:06:57;21.33;;;14.90;;
49450;SDS011;35336;48.400;10.886;2023-03-01T01:07:13;21.92;;;16.02;;
49450;SDS011;35336;48.400;10.886;2023-03-01T01:07:28;19.65;;;15.50;;
49450;SDS011;35336;48.400;10.886;2023-03-01T01:07:44;20.33;;;15.33;;
49450;SDS011;35336;48.400;10.886;2023-03-01T01:07:59;21.50;;;15.90;;
49450;SDS011;35336;48.400;10.886;2023-03-01T01:08:14;20.92;;;15.93;;
49450;SDS011;35336;48.400;10.886;2023-03-01T01:08:30;21.57;;;16.20;;
49450;SDS011;35336;48.400;10.886;2023-03-01T01:08:45;21.55;;;16.20;;
49450;SDS011;35336;48.400;10.886;2023-03-01T01:09:01;21.47;;;15.63;;
49450;SDS011;35336;48.400;10.886;2023-03-01T01:09:17;21.60;;;15.15;;
49450;SDS011;35336;48.400;10.886;2023-03-01T01:09:33;21.27;;;15.10;;
49450;SDS011;35336;48.400;10.886;2023-03-01T01:09:48;20.08;;;14.93;;
49450;SDS011;35336;48.400;10.886;2023-03-01T01:10:04;21.57;;;15.77;;
49450;SDS011;35336;48.400;10.886;2023-03-01T01:10:20;22.67;;;16.42;;
49450;SDS011;35336;48.400;10.886;2023-03-01T01:10:35;22.45;;;15.50;;
49450;SDS011;35336;48.400;10.886;2023-03-01T01:10:51;21.77;;;15.47;;
49450;SDS011;35336;48.400;10.886;2023-03-01T01:11:08;22.13;;;15.90;;
49450;SDS011;35336;48.400;10.886;2023-03-01T01:11:24;21.48;;;15.57;;
49450;SDS011;35336;48.400;10.886;2023-03-01T01:11:41;20.65;;;15.65;;
49450;SDS011;35336;48.400;10.886;2023-03-01T01:11:56;21.83;;;15.87;;
49450;SDS011;35336;48.400;10.886;2023-03-01T01:12:12;23.27;;;16.13;;
49450;SDS011;35336;48.400;10.886;2023-03-01T01:12:27;22.60;;;15.87;;
49450;SDS011;35336;48.400;10.886;2023-03-01T01:12:45;20.90;;;16.05;;
49450;SDS011;35336;48.400;10.886;2023-03-01T01:13:01;22.33;;;16.67;;
49450;SDS011;35336;48.400;10.886;2023-03-01T01:13:16;22.38;;;16.17;;
49450;SDS011;35336;48.400;10.886;2023-03-01T01:13:31;21.37;;;15.93;;
49450;SDS011;35336;48.400;10.886;2023-03-01T01:13:47;21.53;;;16.53;;
49450;SDS011;35336;48.400;10.886;2023-03-01T01:14:03;22.63;;;16.53;;
49450;SDS011;35336;48.400;10.886;2023-03-01T01:14:19;22.50;;;16.50;;
49450;SDS011;35336;48.400;10.886;2023-03-01T01:14:35;22.42;;;16.30;;
49450;SDS011;35336;48.400;10.886;2023-03-01T01:14:50;23.45;;;15.93;;
49450;SDS011;35336;48.400;10.886;2023-03-01T01:15:06;22.83;;;16.23;;
49450;SDS011;35336;48.400;10.886;2023-03-01T01:15:21;23.52;;;16.50;;
49450;SDS011;35336;48.400;10.886;2023-03-01T01:15:37;23.67;;;16.50;;
49450;SDS011;35336;48.400;10.886;2023-03-01T01:15:53;22.65;;;16.40;;
49450;SDS011;35336;48.400;10.886;2023-03-01T01:16:08;22.50;;;16.23;;
49450;SDS011;35336;48.400;10.886;2023-03-01T01:16:24;22.07;;;16.20;;
49450;SDS011;35336;48.400;10.886;2023-03-01T01:16:42;21.52;;;16.13;;
49450;SDS011;35336;48.400;10.886;2023-03-01T01:16:58;22.55;;;16.20;;
49450;SDS011;35336;48.400;10.886;2023-03-01T01:17:13;25.40;;;17.17;;
49450;SDS011;35336;48.400;10.886;2023-03-01T01:17:28;23.60;;;16.73;;
49450;SDS011;35336;48.400;10.886;2023-03-01T01:17:44;21.10;;;16.30;;
49450;SDS011;35336;48.400;10.886;2023-03-01T01:17:59;23.35;;;17.10;;
49450;SDS011;35336;48.400;10.886;2023-03-01T01:18:14;24.27;;;16.93;;
49450;SDS011;35336;48.400;10.886;2023-03-01T01:18:29;22.83;;;16.17;;
49450;SDS011;35336;48.400;10.886;2023-03-01T01:18:45;22.42;;;16.13;;
49450;SDS011;35336;48.400;10.886;2023-03-01T01:19:00;22.23;;;16.63;;
49450;SDS011;35336;48.400;10.886;2023-03-01T01:19:16;20.88;;;16.15;;
49450;SDS011;35336;48.400;10.886;2023-03-01T01:19:31;21.47;;;16.13;;
49450;SDS011;35336;48.400;10.886;2023-03-01T01:19:47;22.58;;;16.58;;
49450;SDS011;35336;48.400;10.886;2023-03-01T01:20:02;21.97;;;16.33;;
49450;SDS011;35336;48.400;10.886;2023-03-01T01:20:18;21.42;;;16.05;;
49450;SDS011;35336;48.400;10.886;2023-03-01T01:20:35;21.17;;;15.80;;
49450;SDS011;35336;48.400;10.886;2023-03-01T01:20:50;22.98;;;16.00;;
49450;SDS011;35336;48.400;10.886;2023-03-01T01:21:07;22.98;;;16.42;;
49450;SDS011;35336;48.400;10.886;2023-03-01T01:21:24;22.52;;;16.60;;
49450;SDS011;35336;48.400;10.886;2023-03-01T01:21:40;23.00;;;16.75;;
49450;SDS011;35336;48.400;10.886;2023-03-01T01:21:56;22.02;;;16.05;;
49450;SDS011;35336;48.400;10.886;2023-03-01T01:22:11;21.03;;;15.13;;
49450;SDS011;35336;48.400;10.886;2023-03-01T01:22:27;21.98;;;15.27;;
49450;SDS011;35336;48.400;10.886;2023-03-01T01:22:42;22.40;;;16.03;;
49450;SDS011;35336;48.400;10.886;2023-03-01T01:22:57;22.53;;;16.13;;
49450;SDS011;35336;48.400;10.886;2023-03-01T01:23:13;23.17;;;15.75;;
49450;SDS011;35336;48.400;10.886;2023-03-01T01:23:28;21.63;;;15.43;;
49450;SDS011;35336;48.400;10.886;2023-03-01T01:23:44;20.23;;;15.53;;
49450;SDS011;35336;48.400;10.886;2023-03-01T01:24:02;20.08;;;15.45;;
49450;SDS011;35336;48.400;10.886;2023-03-01T01:24:18;20.10;;;15.50;;
49450;SDS011;35336;48.400;10.886;2023-03-01T01:24:34;21.73;;;16.00;;
49450;SDS011;35336;48.400;10.886;2023-03-01T01:24:51;23.38;;;16.30;;
49450;SDS011;35336;48.400;10.886;2023-03-01T01:25:06;22.20;;;16.03;;
49450;SDS011;35336;48.400;10.886;2023-03-01T01:25:22;19.77;;;15.20;;
49450;SDS011;35336;48.400;10.886;2023-03-01T01:25:37;19.37;;;15.03;;
49450;SDS011;35336;48.400;10.886;2023-03-01T01:25:52;20.53;;;15.53;;
49450;SDS011;35336;48.400;10.886;2023-03-01T01:26:09;22.05;;;15.30;;
49450;SDS011;35336;48.400;10.886;2023-03-01T01:26:28;21.65;;;14.85;;
49450;SDS011;35336;48.400;10.886;2023-03-01T01:26:45;19.98;;;15.20;;
49450;SDS011;35336;48.400;10.886;2023-03-01T01:27:00;20.77;;;15.55;;
49450;SDS011;35336;48.400;10.886;2023-03-01T01:27:16;24.33;;;15.73;;
49450;SDS011;35336;48.400;10.886;2023-03-01T01:27:31;23.50;;;15.87;;
49450;SDS011;35336;48.400;10.886;2023-03-01T01:27:46;21.38;;;15.75;;
49450;SDS011;35336;48.400;10.886;2023-03-01T01:28:02;22.07;;;15.57;;
49450;SDS011;35336;48.400;10.886;2023-03-01T01:28:17;21.87;;;15.83;;
49450;SDS011;35336;48.400;10.886;2023-03-01T01:28:33;21.00;;;15.73;;
49450;SDS011;35336;48.400;10.886;2023-03-01T01:28:48;21.10;;;15.53;;
49450;SDS011;35336;48.400;10.886;2023-03-01T01:29:04;21.63;;;16.05;;
49450;SDS011;35336;48.400;10.886;2023-03-01T01:29:20;21.10;;;15.85;;
49450;SDS011;35336;48.400;10.886;2023-03-01T01:29:36;22.13;;;16.07;;
49450;SDS011;35336;48.400;10.886;2023-03-01T01:29:52;21.10;;;15.87;;
49450;SDS011;35336;48.400;10.886;2023-03-01T01:30:08;18.77;;;15.00;;
49450;SDS011;35336;48.400;10.886;2023-03-01T01:30:24;18.90;;;15.02;;
49450;SDS011;35336;48.400;10.886;2023-03-01T01:30:39;21.73;;;15.82;;
49450;SDS011;35336;48.400;10.886;2023-03-01T01:30:55;22.00;;;15.80;;
49450;SDS011;35336;48.400;10.886;2023-03-01T01:31:10;20.93;;;15.50;;
49450;SDS011;35336;48.400;10.886;2023-03-01T01:31:26;20.13;;;15.30;;
49450;SDS011;35336;48.400;10.886;2023-03-01T01:31:43;22.08;;;15.75;;
49450;SDS011;35336;48.400;10.886;2023-03-01T01:31:58;21.33;;;16.13;;
49450;SDS011;35336;48.400;10.886;2023-03-01T01:32:14;20.03;;;15.70;;